sensor_id;sensor_type;location;lat;lon;timestamp;P1;durP1;ratioP1;P2;durP2;ratioP2
75156;SDS011;63736;50.076;8.198;2023-09-19T00:02:01;913.05;;;216.95;;
75156;SDS011;63736;50.076;8.198;2023-09-19T00:04:30;918.10;;;220.18;;
75156;SDS011;63736;50.076;8.198;2023-09-19T00:06:57;916.25;;;218.40;;
75156;SDS011;63736;50.076;8.198;2023-09-19T00:09:22;917.27;;;219.17;;
75156;SDS011;63736;50.076;8.198;2023-09-19T00:11:51;910.88;;;216.77;;
75156;SDS011;63736;50.076;8.198;2023-09-19T00:14:16;909.77;;;216.40;;
75156;SDS011;63736;50.076;8.198;2023-09-19T00:16:42;908.23;;;215.70;;
75156;SDS011;63736;50.076;8.198;2023-09-19T00:19:07;914.53;;;219.18;;
75156;SDS011;63736;50.076;8.198;2023-09-19T00:21:33;912.47;;;217.13;;
75156;SDS011;63736;50.076;8.198;2023-09-19T00:24:00;912.50;;;217.57;;
75156;SDS011;63736;50.076;8.198;2023-09-19T00:26:26;912.00;;;217.10;;
75156;SDS011;63736;50.076;8.198;2023-09-19T00:28:54;912.00;;;218.37;;
75156;SDS011;63736;50.076;8.198;2023-09-19T00:31:19;913.40;;;217.05;;
75156;SDS011;63736;50.076;8.198;2023-09-19T00:33:45;915.83;;;218.87;;
75156;SDS011;63736;50.076;8.198;2023-09-19T00:36:10;912.65;;;216.60;;
75156;SDS011;63736;50.076;8.198;2023-09-19T00:38:36;913.07;;;217.13;;
75156;SDS011;63736;50.076;8.198;2023-09-19T00:41:01;925.47;;;220.00;;
75156;SDS011;63736;50.076;8.198;2023-09-19T00:43:27;919.00;;;218.32;;
75156;SDS011;63736;50.076;8.198;2023-09-19T00:45:53;917.63;;;219.47;;
75156;SDS011;63736;50.076;8.198;2023-09-19T00:48:23;916.65;;;217.88;;
75156;SDS011;63736;50.076;8.198;2023-09-19T00:50:50;919.33;;;218.55;;
75156;SDS011;63736;50.076;8.198;2023-09-19T00:53:17;916.27;;;217.37;;
75156;SDS011;63736;50.076;8.198;2023-09-19T00:55:45;916.15;;;218.18;;
75156;SDS011;63736;50.076;8.198;2023-09-19T00:58:12;914.80;;;217.77;;
75156;SDS011;63736;50.076;8.198;2023-09-19T01:00:37;913.80;;;218.07;;
75156;SDS011;63736;50.076;8.198;2023-09-19T01:03:03;913.45;;;216.52;;
75156;SDS011;63736;50.076;8.198;2023-09-19T01:05:29;913.53;;;217.43;;
75156;SDS011;63736;50.076;8.198;2023-09-19T01:07:55;914.28;;;218.20;;
75156;SDS011;63736;50.076;8.198;2023-09-19T01:10:20;913.07;;;217.37;;
75156;SDS011;63736;50.076;8.198;2023-09-19T01:13:08;915.28;;;218.15;;
75156;SDS011;63736;50.076;8.198;2023-09-19T01:15:51;910.40;;;217.70;;
75156;SDS011;63736;50.076;8.198;2023-09-19T01:18:40;914.05;;;218.05;;
75156;SDS011;63736;50.076;8.198;2023-09-19T01:30:13;918.47;;;218.93;;
75156;SDS011;63736;50.076;8.198;2023-09-19T01:32:42;929.50;;;222.13;;
75156;SDS011;63736;50.076;8.198;2023-09-19T01:35:08;930.03;;;221.20;;
75156;SDS011;63736;50.076;8.198;2023-09-19T01:37:37;917.03;;;217.63;;
75156;SDS011;63736;50.076;8.198;2023-09-19T01:45:13;917.13;;;218.73;;
75156;SDS011;63736;50.076;8.198;2023-09-19T01:48:10;908.33;;;215.18;;
75156;SDS011;63736;50.076;8.198;2023-09-19T01:50:48;920.80;;;219.05;;
75156;SDS011;63736;50.076;8.198;2023-09-19T01:53:41;920.47;;;217.52;;
75156;SDS011;63736;50.076;8.198;2023-09-19T01:56:19;928.80;;;220.55;;
75156;SDS011;63736;50.076;8.198;2023-09-19T01:58:51;928.60;;;221.70;;
75156;SDS011;63736;50.076;8.198;2023-09-19T02:01:22;927.85;;;219.43;;
75156;SDS011;63736;50.076;8.198;2023-09-19T02:03:49;931.90;;;221.88;;
75156;SDS011;63736;50.076;8.198;2023-09-19T02:06:15;934.15;;;222.35;;
75156;SDS011;63736;50.076;8.198;2023-09-19T02:08:42;938.72;;;223.25;;
75156;SDS011;63736;50.076;8.198;2023-09-19T02:11:08;922.73;;;220.10;;
75156;SDS011;63736;50.076;8.198;2023-09-19T02:13:33;925.80;;;220.03;;
75156;SDS011;63736;50.076;8.198;2023-09-19T02:15:59;900.40;;;212.80;;
75156;SDS011;63736;50.076;8.198;2023-09-19T02:18:24;891.17;;;209.30;;
75156;SDS011;63736;50.076;8.198;2023-09-19T02:20:53;887.80;;;209.38;;
75156;SDS011;63736;50.076;8.198;2023-09-19T02:23:19;880.97;;;207.93;;
75156;SDS011;63736;50.076;8.198;2023-09-19T02:25:51;897.60;;;210.63;;
75156;SDS011;63736;50.076;8.198;2023-09-19T02:28:23;881.22;;;207.90;;
75156;SDS011;63736;50.076;8.198;2023-09-19T02:30:49;888.75;;;209.63;;
75156;SDS011;63736;50.076;8.198;2023-09-19T02:33:15;879.25;;;206.10;;
75156;SDS011;63736;50.076;8.198;2023-09-19T02:35:42;889.40;;;209.00;;
75156;SDS011;63736;50.076;8.198;2023-09-19T02:38:07;876.92;;;205.00;;
75156;SDS011;63736;50.076;8.198;2023-09-19T02:40:33;868.83;;;204.37;;
75156;SDS011;63736;50.076;8.198;2023-09-19T02:43:01;862.70;;;201.93;;
75156;SDS011;63736;50.076;8.198;2023-09-19T02:45:26;852.75;;;200.32;;
75156;SDS011;63736;50.076;8.198;2023-09-19T02:47:52;847.90;;;198.13;;
75156;SDS011;63736;50.076;8.198;2023-09-19T02:50:17;841.63;;;196.20;;
75156;SDS011;63736;50.076;8.198;2023-09-19T02:52:43;829.08;;;193.63;;
75156;SDS011;63736;50.076;8.198;2023-09-19T02:55:10;818.08;;;190.68;;
75156;SDS011;63736;50.076;8.198;2023-09-19T02:57:37;814.87;;;190.07;;
75156;SDS011;63736;50.076;8.198;2023-09-19T03:00:06;809.88;;;187.68;;
75156;SDS011;63736;50.076;8.198;2023-09-19T03:02:33;810.25;;;188.40;;
75156;SDS011;63736;50.076;8.198;2023-09-19T03:04:59;812.30;;;188.75;;
75156;SDS011;63736;50.076;8.198;2023-09-19T03:07:25;824.20;;;191.30;;
75156;SDS011;63736;50.076;8.198;2023-09-19T03:09:50;828.00;;;192.17;;
75156;SDS011;63736;50.076;8.198;2023-09-19T03:12:17;822.15;;;193.23;;
75156;SDS011;63736;50.076;8.198;2023-09-19T03:14:43;825.90;;;193.00;;
75156;SDS011;63736;50.076;8.198;2023-09-19T03:17:08;828.88;;;194.70;;
75156;SDS011;63736;50.076;8.198;2023-09-19T03:19:34;828.57;;;193.63;;
75156;SDS011;63736;50.076;8.198;2023-09-19T03:21:59;836.00;;;195.77;;
75156;SDS011;63736;50.076;8.198;2023-09-19T03:24:25;831.20;;;195.37;;
75156;SDS011;63736;50.076;8.198;2023-09-19T03:26:51;822.85;;;193.65;;
75156;SDS011;63736;50.076;8.198;2023-09-19T03:29:17;812.30;;;189.90;;
75156;SDS011;63736;50.076;8.198;2023-09-19T03:31:43;807.67;;;189.43;;
75156;SDS011;63736;50.076;8.198;2023-09-19T03:34:08;807.78;;;189.23;;
75156;SDS011;63736;50.076;8.198;2023-09-19T03:36:34;806.33;;;189.70;;
75156;SDS011;63736;50.076;8.198;2023-09-19T03:38:59;803.50;;;187.55;;
75156;SDS011;63736;50.076;8.198;2023-09-19T03:41:25;804.50;;;189.03;;
75156;SDS011;63736;50.076;8.198;2023-09-19T03:43:50;805.73;;;188.97;;
75156;SDS011;63736;50.076;8.198;2023-09-19T03:46:15;805.87;;;188.83;;
75156;SDS011;63736;50.076;8.198;2023-09-19T03:48:41;806.83;;;189.70;;
75156;SDS011;63736;50.076;8.198;2023-09-19T03:51:06;810.30;;;190.57;;
75156;SDS011;63736;50.076;8.198;2023-09-19T03:53:31;811.67;;;190.10;;
75156;SDS011;63736;50.076;8.198;2023-09-19T03:55:56;816.30;;;192.33;;
75156;SDS011;63736;50.076;8.198;2023-09-19T03:58:22;817.57;;;192.60;;
75156;SDS011;63736;50.076;8.198;2023-09-19T04:00:47;818.10;;;192.90;;
75156;SDS011;63736;50.076;8.198;2023-09-19T04:03:14;813.55;;;192.07;;
75156;SDS011;63736;50.076;8.198;2023-09-19T04:05:45;811.55;;;190.75;;
75156;SDS011;63736;50.076;8.198;2023-09-19T04:08:11;808.92;;;190.18;;
75156;SDS011;63736;50.076;8.198;2023-09-19T04:10:37;805.47;;;189.60;;
75156;SDS011;63736;50.076;8.198;2023-09-19T04:13:02;803.47;;;188.97;;
75156;SDS011;63736;50.076;8.198;2023-09-19T04:15:29;801.47;;;187.77;;
75156;SDS011;63736;50.076;8.198;2023-09-19T04:17:54;800.70;;;187.80;;
75156;SDS011;63736;50.076;8.198;2023-09-19T04:20:20;803.57;;;188.90;;
75156;SDS011;63736;50.076;8.198;2023-09-19T04:22:47;800.08;;;187.82;;
75156;SDS011;63736;50.076;8.198;2023-09-19T04:25:12;797.83;;;188.83;;
75156;SDS011;63736;50.076;8.198;2023-09-19T04:27:39;796.33;;;187.23;;
75156;SDS011;63736;50.076;8.198;2023-09-19T04:30:06;794.20;;;186.30;;
75156;SDS011;63736;50.076;8.198;2023-09-19T04:32:35;795.90;;;186.18;;
75156;SDS011;63736;50.076;8.198;2023-09-19T04:35:01;796.33;;;187.57;;
75156;SDS011;63736;50.076;8.198;2023-09-19T04:37:30;795.58;;;186.68;;
75156;SDS011;63736;50.076;8.198;2023-09-19T04:39:55;794.53;;;186.40;;
75156;SDS011;63736;50.076;8.198;2023-09-19T04:42:20;793.87;;;186.27;;
75156;SDS011;63736;50.076;8.198;2023-09-19T04:44:46;793.63;;;186.50;;
75156;SDS011;63736;50.076;8.198;2023-09-19T04:47:14;797.08;;;187.82;;
75156;SDS011;63736;50.076;8.198;2023-09-19T04:49:41;792.60;;;185.70;;
75156;SDS011;63736;50.076;8.198;2023-09-19T04:52:06;795.17;;;186.35;;
75156;SDS011;63736;50.076;8.198;2023-09-19T04:54:31;796.00;;;187.37;;
75156;SDS011;63736;50.076;8.198;2023-09-19T04:56:58;797.10;;;187.23;;
75156;SDS011;63736;50.076;8.198;2023-09-19T04:59:24;793.43;;;187.40;;
75156;SDS011;63736;50.076;8.198;2023-09-19T05:01:49;787.43;;;184.63;;
75156;SDS011;63736;50.076;8.198;2023-09-19T05:04:14;787.03;;;184.27;;
75156;SDS011;63736;50.076;8.198;2023-09-19T05:06:40;797.83;;;188.40;;
75156;SDS011;63736;50.076;8.198;2023-09-19T05:09:05;798.33;;;186.85;;
75156;SDS011;63736;50.076;8.198;2023-09-19T05:11:31;803.53;;;188.30;;
75156;SDS011;63736;50.076;8.198;2023-09-19T05:13:56;820.17;;;192.67;;
75156;SDS011;63736;50.076;8.198;2023-09-19T05:16:21;847.37;;;201.23;;
75156;SDS011;63736;50.076;8.198;2023-09-19T05:18:47;865.03;;;206.70;;
75156;SDS011;63736;50.076;8.198;2023-09-19T05:21:12;867.80;;;206.57;;
75156;SDS011;63736;50.076;8.198;2023-09-19T05:23:38;876.40;;;210.33;;
75156;SDS011;63736;50.076;8.198;2023-09-19T05:26:03;876.23;;;211.53;;
75156;SDS011;63736;50.076;8.198;2023-09-19T05:28:32;877.60;;;211.30;;
75156;SDS011;63736;50.076;8.198;2023-09-19T05:31:02;869.13;;;209.27;;
75156;SDS011;63736;50.076;8.198;2023-09-19T05:33:27;866.00;;;207.55;;
75156;SDS011;63736;50.076;8.198;2023-09-19T05:35:52;866.03;;;209.70;;
75156;SDS011;63736;50.076;8.198;2023-09-19T05:38:19;862.28;;;208.02;;
75156;SDS011;63736;50.076;8.198;2023-09-19T05:40:45;850.83;;;203.77;;
75156;SDS011;63736;50.076;8.198;2023-09-19T05:43:11;851.07;;;205.07;;
75156;SDS011;63736;50.076;8.198;2023-09-19T05:45:36;848.25;;;202.75;;
75156;SDS011;63736;50.076;8.198;2023-09-19T05:48:09;847.83;;;204.00;;
75156;SDS011;63736;50.076;8.198;2023-09-19T05:50:40;849.17;;;203.38;;
75156;SDS011;63736;50.076;8.198;2023-09-19T05:53:06;847.15;;;203.75;;
75156;SDS011;63736;50.076;8.198;2023-09-19T05:55:32;845.43;;;202.67;;
75156;SDS011;63736;50.076;8.198;2023-09-19T05:57:57;845.03;;;202.30;;
75156;SDS011;63736;50.076;8.198;2023-09-19T06:00:23;841.80;;;201.37;;
75156;SDS011;63736;50.076;8.198;2023-09-19T06:02:52;841.60;;;201.13;;
75156;SDS011;63736;50.076;8.198;2023-09-19T06:05:19;842.33;;;201.25;;
75156;SDS011;63736;50.076;8.198;2023-09-19T06:07:46;839.45;;;199.75;;
75156;SDS011;63736;50.076;8.198;2023-09-19T06:10:12;841.80;;;201.07;;
75156;SDS011;63736;50.076;8.198;2023-09-19T06:12:38;838.90;;;200.10;;
75156;SDS011;63736;50.076;8.198;2023-09-19T06:15:04;840.50;;;200.35;;
75156;SDS011;63736;50.076;8.198;2023-09-19T06:17:40;842.20;;;200.65;;
75156;SDS011;63736;50.076;8.198;2023-09-19T06:20:12;839.97;;;199.75;;
75156;SDS011;63736;50.076;8.198;2023-09-19T06:22:43;837.87;;;198.53;;
75156;SDS011;63736;50.076;8.198;2023-09-19T06:25:10;835.50;;;196.95;;
75156;SDS011;63736;50.076;8.198;2023-09-19T06:27:37;839.40;;;198.27;;
75156;SDS011;63736;50.076;8.198;2023-09-19T06:30:04;853.85;;;201.23;;
75156;SDS011;63736;50.076;8.198;2023-09-19T06:32:31;898.80;;;213.27;;
75156;SDS011;63736;50.076;8.198;2023-09-19T06:34:56;884.30;;;208.90;;
75156;SDS011;63736;50.076;8.198;2023-09-19T06:37:26;836.85;;;197.95;;
75156;SDS011;63736;50.076;8.198;2023-09-19T06:39:52;839.53;;;198.00;;
75156;SDS011;63736;50.076;8.198;2023-09-19T06:42:18;841.23;;;196.97;;
75156;SDS011;63736;50.076;8.198;2023-09-19T06:44:43;845.47;;;197.90;;
75156;SDS011;63736;50.076;8.198;2023-09-19T06:47:08;872.57;;;205.10;;
75156;SDS011;63736;50.076;8.198;2023-09-19T06:49:35;883.63;;;208.73;;
75156;SDS011;63736;50.076;8.198;2023-09-19T06:52:01;883.17;;;207.65;;
75156;SDS011;63736;50.076;8.198;2023-09-19T06:54:27;881.00;;;207.40;;
75156;SDS011;63736;50.076;8.198;2023-09-19T06:56:56;888.22;;;207.60;;
75156;SDS011;63736;50.076;8.198;2023-09-19T06:59:22;903.73;;;213.67;;
75156;SDS011;63736;50.076;8.198;2023-09-19T07:01:48;881.87;;;206.40;;
75156;SDS011;63736;50.076;8.198;2023-09-19T07:04:14;874.20;;;204.00;;
75156;SDS011;63736;50.076;8.198;2023-09-19T07:06:39;869.47;;;203.73;;
75156;SDS011;63736;50.076;8.198;2023-09-19T07:09:05;868.07;;;202.50;;
75156;SDS011;63736;50.076;8.198;2023-09-19T07:11:31;875.10;;;204.15;;
75156;SDS011;63736;50.076;8.198;2023-09-19T07:13:57;878.53;;;205.10;;
75156;SDS011;63736;50.076;8.198;2023-09-19T07:16:23;875.85;;;204.77;;
75156;SDS011;63736;50.076;8.198;2023-09-19T07:18:54;875.33;;;204.77;;
75156;SDS011;63736;50.076;8.198;2023-09-19T07:21:21;877.78;;;205.88;;
75156;SDS011;63736;50.076;8.198;2023-09-19T07:23:47;878.17;;;206.00;;
75156;SDS011;63736;50.076;8.198;2023-09-19T07:26:12;880.90;;;205.73;;
75156;SDS011;63736;50.076;8.198;2023-09-19T07:28:38;922.72;;;217.23;;
75156;SDS011;63736;50.076;8.198;2023-09-19T07:31:03;915.10;;;216.07;;
75156;SDS011;63736;50.076;8.198;2023-09-19T07:33:30;914.10;;;213.63;;
75156;SDS011;63736;50.076;8.198;2023-09-19T07:35:56;902.47;;;211.18;;
75156;SDS011;63736;50.076;8.198;2023-09-19T07:38:21;914.57;;;214.13;;
75156;SDS011;63736;50.076;8.198;2023-09-19T07:40:47;922.42;;;215.20;;
75156;SDS011;63736;50.076;8.198;2023-09-19T07:43:13;888.80;;;207.27;;
75156;SDS011;63736;50.076;8.198;2023-09-19T07:45:38;878.87;;;205.67;;
75156;SDS011;63736;50.076;8.198;2023-09-19T07:48:03;878.37;;;206.33;;
75156;SDS011;63736;50.076;8.198;2023-09-19T07:50:32;905.78;;;212.23;;
75156;SDS011;63736;50.076;8.198;2023-09-19T07:52:58;908.92;;;212.90;;
75156;SDS011;63736;50.076;8.198;2023-09-19T07:55:24;1015.10;;;239.70;;
75156;SDS011;63736;50.076;8.198;2023-09-19T07:57:50;1070.28;;;252.98;;
75156;SDS011;63736;50.076;8.198;2023-09-19T08:00:16;1082.00;;;256.33;;
75156;SDS011;63736;50.076;8.198;2023-09-19T08:02:42;1072.73;;;253.77;;
75156;SDS011;63736;50.076;8.198;2023-09-19T08:05:09;1068.95;;;251.93;;
75156;SDS011;63736;50.076;8.198;2023-09-19T08:07:35;1094.47;;;258.10;;
75156;SDS011;63736;50.076;8.198;2023-09-19T08:10:01;1061.45;;;249.27;;
75156;SDS011;63736;50.076;8.198;2023-09-19T08:12:27;1059.35;;;247.75;;
75156;SDS011;63736;50.076;8.198;2023-09-19T08:14:53;1074.23;;;251.07;;
75156;SDS011;63736;50.076;8.198;2023-09-19T08:17:18;1076.67;;;251.23;;
75156;SDS011;63736;50.076;8.198;2023-09-19T08:19:45;1106.38;;;259.30;;
75156;SDS011;63736;50.076;8.198;2023-09-19T08:22:11;1123.83;;;263.43;;
75156;SDS011;63736;50.076;8.198;2023-09-19T08:24:36;1230.63;;;291.13;;
75156;SDS011;63736;50.076;8.198;2023-09-19T08:27:03;1290.85;;;305.73;;
75156;SDS011;63736;50.076;8.198;2023-09-19T08:29:30;1300.43;;;306.37;;
75156;SDS011;63736;50.076;8.198;2023-09-19T08:31:59;1296.10;;;306.00;;
75156;SDS011;63736;50.076;8.198;2023-09-19T08:34:24;1296.38;;;307.45;;
75156;SDS011;63736;50.076;8.198;2023-09-19T08:36:53;1276.45;;;302.38;;
75156;SDS011;63736;50.076;8.198;2023-09-19T08:39:22;1249.10;;;295.90;;
75156;SDS011;63736;50.076;8.198;2023-09-19T08:41:48;1236.47;;;293.50;;
75156;SDS011;63736;50.076;8.198;2023-09-19T08:44:14;1229.63;;;292.98;;
75156;SDS011;63736;50.076;8.198;2023-09-19T08:46:42;1224.23;;;291.23;;
75156;SDS011;63736;50.076;8.198;2023-09-19T08:55:07;1246.00;;;297.08;;
75156;SDS011;63736;50.076;8.198;2023-09-19T08:57:36;1271.63;;;300.43;;
75156;SDS011;63736;50.076;8.198;2023-09-19T09:00:06;1345.68;;;316.30;;
75156;SDS011;63736;50.076;8.198;2023-09-19T09:02:37;1391.38;;;328.73;;
75156;SDS011;63736;50.076;8.198;2023-09-19T09:05:06;1407.72;;;330.10;;
75156;SDS011;63736;50.076;8.198;2023-09-19T09:07:34;1383.95;;;325.92;;
75156;SDS011;63736;50.076;8.198;2023-09-19T09:10:02;1360.17;;;320.80;;
75156;SDS011;63736;50.076;8.198;2023-09-19T09:12:28;1357.63;;;320.63;;
75156;SDS011;63736;50.076;8.198;2023-09-19T09:14:54;1355.18;;;321.08;;
75156;SDS011;63736;50.076;8.198;2023-09-19T09:17:22;1358.45;;;320.55;;
75156;SDS011;63736;50.076;8.198;2023-09-19T09:19:47;1356.63;;;318.80;;
75156;SDS011;63736;50.076;8.198;2023-09-19T09:22:13;1385.97;;;328.57;;
75156;SDS011;63736;50.076;8.198;2023-09-19T09:24:59;1380.73;;;326.53;;
75156;SDS011;63736;50.076;8.198;2023-09-19T09:27:26;1388.43;;;330.48;;
75156;SDS011;63736;50.076;8.198;2023-09-19T09:29:52;1374.50;;;327.17;;
75156;SDS011;63736;50.076;8.198;2023-09-19T09:32:23;1359.73;;;322.80;;
75156;SDS011;63736;50.076;8.198;2023-09-19T09:34:54;1361.70;;;325.00;;
75156;SDS011;63736;50.076;8.198;2023-09-19T09:37:24;1357.90;;;323.90;;
75156;SDS011;63736;50.076;8.198;2023-09-19T09:39:58;1342.50;;;320.33;;
75156;SDS011;63736;50.076;8.198;2023-09-19T09:42:43;1342.55;;;321.80;;
75156;SDS011;63736;50.076;8.198;2023-09-19T09:45:12;1325.33;;;315.90;;
75156;SDS011;63736;50.076;8.198;2023-09-19T09:47:54;1325.82;;;317.92;;
75156;SDS011;63736;50.076;8.198;2023-09-19T09:50:29;1328.40;;;318.88;;
75156;SDS011;63736;50.076;8.198;2023-09-19T09:53:21;1328.63;;;318.52;;
75156;SDS011;63736;50.076;8.198;2023-09-19T09:58:37;1319.97;;;316.17;;
75156;SDS011;63736;50.076;8.198;2023-09-19T10:01:14;1320.03;;;316.50;;
75156;SDS011;63736;50.076;8.198;2023-09-19T10:03:41;1321.05;;;317.83;;
75156;SDS011;63736;50.076;8.198;2023-09-19T10:06:17;1323.57;;;318.25;;
75156;SDS011;63736;50.076;8.198;2023-09-19T10:09:07;1312.60;;;314.45;;
75156;SDS011;63736;50.076;8.198;2023-09-19T10:11:43;1305.70;;;313.67;;
75156;SDS011;63736;50.076;8.198;2023-09-19T10:14:11;1303.32;;;313.50;;
75156;SDS011;63736;50.076;8.198;2023-09-19T10:16:45;1298.18;;;314.35;;
75156;SDS011;63736;50.076;8.198;2023-09-19T10:19:15;1292.25;;;311.33;;
75156;SDS011;63736;50.076;8.198;2023-09-19T10:22:01;1286.35;;;308.60;;
75156;SDS011;63736;50.076;8.198;2023-09-19T10:24:27;1288.40;;;310.87;;
75156;SDS011;63736;50.076;8.198;2023-09-19T10:26:53;1287.25;;;309.40;;
75156;SDS011;63736;50.076;8.198;2023-09-19T10:29:20;1290.75;;;311.80;;
75156;SDS011;63736;50.076;8.198;2023-09-19T10:31:49;1288.55;;;310.13;;
75156;SDS011;63736;50.076;8.198;2023-09-19T10:34:18;1284.55;;;309.55;;
75156;SDS011;63736;50.076;8.198;2023-09-19T10:36:45;1281.73;;;308.80;;
75156;SDS011;63736;50.076;8.198;2023-09-19T10:39:15;1283.30;;;309.05;;
75156;SDS011;63736;50.076;8.198;2023-09-19T10:41:51;1281.78;;;308.40;;
75156;SDS011;63736;50.076;8.198;2023-09-19T10:44:24;1285.97;;;310.73;;
75156;SDS011;63736;50.076;8.198;2023-09-19T10:46:51;1287.13;;;310.35;;
75156;SDS011;63736;50.076;8.198;2023-09-19T10:49:18;1277.37;;;306.90;;
75156;SDS011;63736;50.076;8.198;2023-09-19T10:51:44;1279.20;;;307.88;;
75156;SDS011;63736;50.076;8.198;2023-09-19T10:54:13;1278.25;;;308.50;;
75156;SDS011;63736;50.076;8.198;2023-09-19T10:56:59;1223.03;;;294.60;;
75156;SDS011;63736;50.076;8.198;2023-09-19T10:59:24;1200.45;;;289.27;;
75156;SDS011;63736;50.076;8.198;2023-09-19T11:07:10;1184.95;;;286.05;;
75156;SDS011;63736;50.076;8.198;2023-09-19T11:09:43;1177.32;;;283.58;;
75156;SDS011;63736;50.076;8.198;2023-09-19T11:14:54;1181.67;;;284.20;;
75156;SDS011;63736;50.076;8.198;2023-09-19T11:30:32;1131.72;;;272.50;;
75156;SDS011;63736;50.076;8.198;2023-09-19T11:36:01;1119.40;;;267.98;;
75156;SDS011;63736;50.076;8.198;2023-09-19T11:41:36;1118.32;;;269.13;;
75156;SDS011;63736;50.076;8.198;2023-09-19T11:46:28;1114.00;;;267.40;;
75156;SDS011;63736;50.076;8.198;2023-09-19T11:48:55;1107.10;;;266.48;;
75156;SDS011;63736;50.076;8.198;2023-09-19T11:51:40;1099.47;;;264.00;;
75156;SDS011;63736;50.076;8.198;2023-09-19T11:54:10;1097.95;;;263.65;;
75156;SDS011;63736;50.076;8.198;2023-09-19T11:56:53;1097.97;;;263.45;;
75156;SDS011;63736;50.076;8.198;2023-09-19T11:59:31;1096.85;;;263.60;;
75156;SDS011;63736;50.076;8.198;2023-09-19T12:02:00;1095.80;;;263.33;;
75156;SDS011;63736;50.076;8.198;2023-09-19T12:07:03;1094.28;;;263.30;;
75156;SDS011;63736;50.076;8.198;2023-09-19T12:09:30;1092.13;;;262.63;;
75156;SDS011;63736;50.076;8.198;2023-09-19T12:11:56;1088.63;;;261.53;;
75156;SDS011;63736;50.076;8.198;2023-09-19T12:14:25;1087.73;;;260.63;;
75156;SDS011;63736;50.076;8.198;2023-09-19T12:16:53;1086.20;;;260.77;;
75156;SDS011;63736;50.076;8.198;2023-09-19T12:19:20;1086.32;;;260.95;;
75156;SDS011;63736;50.076;8.198;2023-09-19T12:22:00;1086.32;;;260.45;;
75156;SDS011;63736;50.076;8.198;2023-09-19T12:24:30;1084.63;;;260.08;;
75156;SDS011;63736;50.076;8.198;2023-09-19T12:27:03;1085.37;;;260.80;;
75156;SDS011;63736;50.076;8.198;2023-09-19T12:29:30;1083.93;;;259.55;;
75156;SDS011;63736;50.076;8.198;2023-09-19T12:31:57;1083.35;;;260.20;;
75156;SDS011;63736;50.076;8.198;2023-09-19T12:34:24;1083.50;;;260.07;;
75156;SDS011;63736;50.076;8.198;2023-09-19T12:37:10;1082.82;;;260.77;;
75156;SDS011;63736;50.076;8.198;2023-09-19T12:39:37;1082.05;;;261.42;;
75156;SDS011;63736;50.076;8.198;2023-09-19T12:42:10;1077.30;;;258.10;;
75156;SDS011;63736;50.076;8.198;2023-09-19T12:44:40;1075.80;;;257.33;;
75156;SDS011;63736;50.076;8.198;2023-09-19T12:47:10;1077.80;;;257.73;;
75156;SDS011;63736;50.076;8.198;2023-09-19T12:52:51;1081.30;;;260.75;;
75156;SDS011;63736;50.076;8.198;2023-09-19T12:55:21;1081.75;;;261.05;;
75156;SDS011;63736;50.076;8.198;2023-09-19T13:00:35;1077.63;;;257.93;;
75156;SDS011;63736;50.076;8.198;2023-09-19T13:03:09;1081.18;;;259.58;;
75156;SDS011;63736;50.076;8.198;2023-09-19T13:05:59;1080.93;;;258.65;;
75156;SDS011;63736;50.076;8.198;2023-09-19T13:08:38;1079.28;;;258.20;;
75156;SDS011;63736;50.076;8.198;2023-09-19T13:13:39;1079.27;;;257.90;;
75156;SDS011;63736;50.076;8.198;2023-09-19T13:16:06;1082.85;;;258.55;;
75156;SDS011;63736;50.076;8.198;2023-09-19T13:18:57;1084.90;;;259.05;;
75156;SDS011;63736;50.076;8.198;2023-09-19T13:21:32;1084.55;;;259.48;;
75156;SDS011;63736;50.076;8.198;2023-09-19T13:24:17;1084.25;;;257.85;;
75156;SDS011;63736;50.076;8.198;2023-09-19T13:26:44;1081.30;;;257.30;;
75156;SDS011;63736;50.076;8.198;2023-09-19T13:29:10;1080.90;;;257.55;;
75156;SDS011;63736;50.076;8.198;2023-09-19T13:31:36;1081.22;;;259.17;;
75156;SDS011;63736;50.076;8.198;2023-09-19T13:34:06;1076.25;;;256.20;;
75156;SDS011;63736;50.076;8.198;2023-09-19T13:36:31;1075.70;;;257.00;;
75156;SDS011;63736;50.076;8.198;2023-09-19T13:38:57;1074.97;;;255.90;;
75156;SDS011;63736;50.076;8.198;2023-09-19T13:41:22;1078.80;;;257.63;;
75156;SDS011;63736;50.076;8.198;2023-09-19T13:43:49;1077.32;;;256.90;;
75156;SDS011;63736;50.076;8.198;2023-09-19T13:46:14;1080.63;;;258.10;;
75156;SDS011;63736;50.076;8.198;2023-09-19T13:48:41;1079.57;;;257.15;;
75156;SDS011;63736;50.076;8.198;2023-09-19T13:51:06;1072.83;;;254.57;;
75156;SDS011;63736;50.076;8.198;2023-09-19T13:53:31;1074.53;;;255.93;;
75156;SDS011;63736;50.076;8.198;2023-09-19T13:55:57;1076.47;;;255.87;;
75156;SDS011;63736;50.076;8.198;2023-09-19T13:58:22;1079.27;;;256.63;;
75156;SDS011;63736;50.076;8.198;2023-09-19T14:00:52;1080.13;;;257.80;;
75156;SDS011;63736;50.076;8.198;2023-09-19T14:03:20;1078.25;;;255.73;;
75156;SDS011;63736;50.076;8.198;2023-09-19T14:05:46;1078.18;;;256.33;;
75156;SDS011;63736;50.076;8.198;2023-09-19T14:08:11;1078.27;;;257.00;;
75156;SDS011;63736;50.076;8.198;2023-09-19T14:10:37;1074.97;;;255.63;;
75156;SDS011;63736;50.076;8.198;2023-09-19T14:13:03;1072.60;;;255.17;;
75156;SDS011;63736;50.076;8.198;2023-09-19T14:15:29;1072.70;;;254.68;;
75156;SDS011;63736;50.076;8.198;2023-09-19T14:17:58;1073.33;;;257.17;;
75156;SDS011;63736;50.076;8.198;2023-09-19T14:20:25;1072.50;;;255.97;;
75156;SDS011;63736;50.076;8.198;2023-09-19T14:22:51;1074.15;;;256.52;;
75156;SDS011;63736;50.076;8.198;2023-09-19T14:25:17;1074.07;;;256.88;;
75156;SDS011;63736;50.076;8.198;2023-09-19T14:27:43;1070.67;;;254.40;;
75156;SDS011;63736;50.076;8.198;2023-09-19T14:30:08;1068.23;;;254.37;;
75156;SDS011;63736;50.076;8.198;2023-09-19T14:32:34;1070.78;;;256.55;;
75156;SDS011;63736;50.076;8.198;2023-09-19T14:35:00;1065.60;;;254.30;;
75156;SDS011;63736;50.076;8.198;2023-09-19T14:37:26;1063.00;;;252.80;;
75156;SDS011;63736;50.076;8.198;2023-09-19T14:39:53;1065.13;;;254.27;;
75156;SDS011;63736;50.076;8.198;2023-09-19T14:42:18;1065.03;;;254.53;;
75156;SDS011;63736;50.076;8.198;2023-09-19T14:44:43;1063.17;;;253.27;;
75156;SDS011;63736;50.076;8.198;2023-09-19T14:47:08;1065.03;;;254.17;;
75156;SDS011;63736;50.076;8.198;2023-09-19T14:49:34;1062.33;;;252.93;;
75156;SDS011;63736;50.076;8.198;2023-09-19T14:52:00;1065.70;;;254.90;;
75156;SDS011;63736;50.076;8.198;2023-09-19T14:54:28;1062.75;;;253.05;;
75156;SDS011;63736;50.076;8.198;2023-09-19T14:56:55;1061.50;;;252.88;;
75156;SDS011;63736;50.076;8.198;2023-09-19T14:59:29;1060.37;;;252.10;;
75156;SDS011;63736;50.076;8.198;2023-09-19T15:01:55;1057.82;;;251.40;;